sensor_id;sensor_type;location;lat;lon;timestamp;pressure;altitude;pressure_sealevel;temperature;humidity
76201;BME280;64981;52.930;9.266;2023-05-09T00:00:11;101694.44;;;13.27;47.73
76201;BME280;64981;52.930;9.266;2023-05-09T00:02:38;101703.53;;;13.24;47.68
76201;BME280;64981;52.930;9.266;2023-05-09T00:05:04;101697.91;;;13.27;47.95
76201;BME280;64981;52.930;9.266;2023-05-09T00:07:32;101686.00;;;13.31;47.48
76201;BME280;64981;52.930;9.266;2023-05-09T00:09:59;101694.59;;;13.25;47.79
76201;BME280;64981;52.930;9.266;2023-05-09T00:12:26;101692.53;;;13.19;48.10
76201;BME280;64981;52.930;9.266;2023-05-09T00:14:51;101698.06;;;13.26;47.66
76201;BME280;64981;52.930;9.266;2023-05-09T00:17:19;101684.53;;;13.11;47.85
76201;BME280;64981;52.930;9.266;2023-05-09T00:19:47;101693.34;;;13.12;47.92
76201;BME280;64981;52.930;9.266;2023-05-09T00:22:14;101687.16;;;13.03;48.13
76201;BME280;64981;52.930;9.266;2023-05-09T00:24:41;101688.34;;;13.09;47.70
76201;BME280;64981;52.930;9.266;2023-05-09T00:27:07;101689.72;;;12.95;48.01
76201;BME280;64981;52.930;9.266;2023-05-09T00:29:33;101688.66;;;13.06;47.95
76201;BME280;64981;52.930;9.266;2023-05-09T00:31:58;101682.75;;;12.94;47.92
76201;BME280;64981;52.930;9.266;2023-05-09T00:34:24;101669.56;;;13.02;47.67
76201;BME280;64981;52.930;9.266;2023-05-09T00:36:49;101667.97;;;12.91;47.58
76201;BME280;64981;52.930;9.266;2023-05-09T00:39:15;101666.16;;;12.74;47.90
76201;BME280;64981;52.930;9.266;2023-05-09T00:41:41;101665.69;;;12.79;47.74
76201;BME280;64981;52.930;9.266;2023-05-09T00:44:07;101659.06;;;12.57;47.77
76201;BME280;64981;52.930;9.266;2023-05-09T00:46:32;101660.78;;;12.66;47.85
76201;BME280;64981;52.930;9.266;2023-05-09T00:48:58;101665.56;;;12.80;47.36
76201;BME280;64981;52.930;9.266;2023-05-09T00:51:24;101642.97;;;12.76;47.32
76201;BME280;64981;52.930;9.266;2023-05-09T00:53:50;101625.00;;;12.62;47.28
76201;BME280;64981;52.930;9.266;2023-05-09T00:56:16;101648.47;;;12.57;47.96
76201;BME280;64981;52.930;9.266;2023-05-09T00:58:41;101644.31;;;12.55;47.65
76201;BME280;64981;52.930;9.266;2023-05-09T01:01:07;101645.66;;;12.41;47.84
76201;BME280;64981;52.930;9.266;2023-05-09T01:03:34;101633.69;;;12.55;47.67
76201;BME280;64981;52.930;9.266;2023-05-09T01:06:10;101636.28;;;12.47;47.96
76201;BME280;64981;52.930;9.266;2023-05-09T01:08:54;101628.13;;;12.40;47.96
76201;BME280;64981;52.930;9.266;2023-05-09T01:11:44;101627.81;;;12.43;47.72
76201;BME280;64981;52.930;9.266;2023-05-09T01:14:43;101631.53;;;12.50;47.64
76201;BME280;64981;52.930;9.266;2023-05-09T01:17:43;101625.53;;;12.48;47.63
76201;BME280;64981;52.930;9.266;2023-05-09T01:20:17;101629.25;;;12.37;47.92
76201;BME280;64981;52.930;9.266;2023-05-09T01:22:54;101615.88;;;12.21;47.86
76201;BME280;64981;52.930;9.266;2023-05-09T01:28:34;101607.91;;;12.21;47.81
76201;BME280;64981;52.930;9.266;2023-05-09T01:31:03;101606.25;;;12.20;48.03
76201;BME280;64981;52.930;9.266;2023-05-09T01:33:32;101609.97;;;12.27;47.78
76201;BME280;64981;52.930;9.266;2023-05-09T01:36:04;101596.56;;;11.94;48.32
76201;BME280;64981;52.930;9.266;2023-05-09T01:38:35;101608.81;;;12.12;47.89
76201;BME280;64981;52.930;9.266;2023-05-09T01:41:03;101607.28;;;12.10;47.97
76201;BME280;64981;52.930;9.266;2023-05-09T01:43:32;101601.84;;;12.11;47.84
76201;BME280;64981;52.930;9.266;2023-05-09T01:46:01;101600.72;;;11.96;48.25
76201;BME280;64981;52.930;9.266;2023-05-09T01:48:30;101594.50;;;12.05;48.47
76201;BME280;64981;52.930;9.266;2023-05-09T01:51:00;101601.78;;;12.21;47.58
76201;BME280;64981;52.930;9.266;2023-05-09T01:53:27;101597.59;;;12.01;48.13
76201;BME280;64981;52.930;9.266;2023-05-09T01:55:53;101593.91;;;11.94;48.57
76201;BME280;64981;52.930;9.266;2023-05-09T01:58:22;101584.78;;;11.78;48.96
76201;BME280;64981;52.930;9.266;2023-05-09T02:00:50;101591.94;;;11.96;48.14
76201;BME280;64981;52.930;9.266;2023-05-09T02:03:17;101594.94;;;11.83;48.62
76201;BME280;64981;52.930;9.266;2023-05-09T02:05:44;101591.69;;;11.89;48.17
76201;BME280;64981;52.930;9.266;2023-05-09T02:08:12;101586.34;;;11.81;48.59
76201;BME280;64981;52.930;9.266;2023-05-09T02:10:39;101590.94;;;11.79;48.90
76201;BME280;64981;52.930;9.266;2023-05-09T02:13:06;101584.84;;;11.69;49.20
76201;BME280;64981;52.930;9.266;2023-05-09T02:15:32;101579.50;;;11.51;49.70
76201;BME280;64981;52.930;9.266;2023-05-09T02:17:58;101588.66;;;11.57;49.85
76201;BME280;64981;52.930;9.266;2023-05-09T02:20:24;101577.81;;;11.60;49.57
76201;BME280;64981;52.930;9.266;2023-05-09T02:22:49;101564.81;;;11.66;49.56
76201;BME280;64981;52.930;9.266;2023-05-09T02:25:15;101578.66;;;11.51;49.94
76201;BME280;64981;52.930;9.266;2023-05-09T02:27:44;101575.53;;;11.37;50.24
76201;BME280;64981;52.930;9.266;2023-05-09T02:30:14;101578.91;;;11.57;50.07
76201;BME280;64981;52.930;9.266;2023-05-09T02:32:44;101574.97;;;11.44;50.69
76201;BME280;64981;52.930;9.266;2023-05-09T02:35:15;101575.53;;;11.37;50.92
76201;BME280;64981;52.930;9.266;2023-05-09T02:37:43;101575.09;;;11.42;50.89
76201;BME280;64981;52.930;9.266;2023-05-09T02:40:10;101564.44;;;11.34;51.14
76201;BME280;64981;52.930;9.266;2023-05-09T02:42:36;101571.00;;;11.30;51.38
76201;BME280;64981;52.930;9.266;2023-05-09T02:45:02;101575.09;;;11.42;51.12
76201;BME280;64981;52.930;9.266;2023-05-09T02:47:27;101569.84;;;11.32;51.41
76201;BME280;64981;52.930;9.266;2023-05-09T02:49:53;101568.22;;;11.22;51.59
76201;BME280;64981;52.930;9.266;2023-05-09T02:52:18;101565.88;;;11.19;51.88
76201;BME280;64981;52.930;9.266;2023-05-09T02:54:44;101567.22;;;11.32;51.63
76201;BME280;64981;52.930;9.266;2023-05-09T02:57:10;101557.34;;;11.25;51.84
76201;BME280;64981;52.930;9.266;2023-05-09T02:59:36;101552.22;;;11.23;52.02
76201;BME280;64981;52.930;9.266;2023-05-09T03:02:01;101552.44;;;11.12;52.37
76201;BME280;64981;52.930;9.266;2023-05-09T03:04:27;101541.56;;;11.15;52.04
76201;BME280;64981;52.930;9.266;2023-05-09T03:06:52;101553.41;;;11.11;52.86
76201;BME280;64981;52.930;9.266;2023-05-09T03:09:18;101550.53;;;10.95;53.18
76201;BME280;64981;52.930;9.266;2023-05-09T03:11:44;101552.22;;;10.96;52.87
76201;BME280;64981;52.930;9.266;2023-05-09T03:14:09;101554.47;;;10.81;53.68
76201;BME280;64981;52.930;9.266;2023-05-09T03:16:37;101542.59;;;10.95;53.13
76201;BME280;64981;52.930;9.266;2023-05-09T03:19:03;101541.19;;;11.01;53.67
76201;BME280;64981;52.930;9.266;2023-05-09T03:21:28;101530.47;;;11.02;53.46
76201;BME280;64981;52.930;9.266;2023-05-09T03:23:54;101534.38;;;10.98;53.48
76201;BME280;64981;52.930;9.266;2023-05-09T03:26:20;101530.03;;;11.07;53.43
76201;BME280;64981;52.930;9.266;2023-05-09T03:28:46;101531.19;;;10.95;53.95
76201;BME280;64981;52.930;9.266;2023-05-09T03:31:13;101536.94;;;10.90;54.20
76201;BME280;64981;52.930;9.266;2023-05-09T03:33:39;101524.00;;;10.87;54.23
76201;BME280;64981;52.930;9.266;2023-05-09T03:36:05;101537.66;;;10.73;54.71
76201;BME280;64981;52.930;9.266;2023-05-09T03:38:30;101522.28;;;10.59;54.96
76201;BME280;64981;52.930;9.266;2023-05-09T03:40:56;101529.44;;;10.76;54.80
76201;BME280;64981;52.930;9.266;2023-05-09T03:43:21;101525.63;;;10.51;55.72
76201;BME280;64981;52.930;9.266;2023-05-09T03:45:47;101526.59;;;10.50;55.67
76201;BME280;64981;52.930;9.266;2023-05-09T03:48:12;101526.97;;;10.74;55.05
76201;BME280;64981;52.930;9.266;2023-05-09T03:50:38;101526.31;;;10.53;55.84
76201;BME280;64981;52.930;9.266;2023-05-09T03:53:03;101514.78;;;10.45;56.13
76201;BME280;64981;52.930;9.266;2023-05-09T03:55:29;101510.72;;;10.60;55.63
76201;BME280;64981;52.930;9.266;2023-05-09T03:57:55;101511.16;;;10.55;56.02
76201;BME280;64981;52.930;9.266;2023-05-09T04:00:21;101509.09;;;10.59;55.88
76201;BME280;64981;52.930;9.266;2023-05-09T04:02:47;101509.84;;;10.69;55.45
76201;BME280;64981;52.930;9.266;2023-05-09T04:05:14;101515.16;;;10.69;55.88
76201;BME280;64981;52.930;9.266;2023-05-09T04:07:40;101508.50;;;10.65;55.80
76201;BME280;64981;52.930;9.266;2023-05-09T04:10:06;101510.44;;;10.63;56.10
76201;BME280;64981;52.930;9.266;2023-05-09T04:12:32;101507.38;;;10.67;55.95
76201;BME280;64981;52.930;9.266;2023-05-09T04:14:58;101486.28;;;10.48;56.17
76201;BME280;64981;52.930;9.266;2023-05-09T04:17:23;101517.78;;;10.69;56.49
76201;BME280;64981;52.930;9.266;2023-05-09T04:19:49;101510.97;;;10.76;56.11
76201;BME280;64981;52.930;9.266;2023-05-09T04:22:14;101509.47;;;10.64;56.49
76201;BME280;64981;52.930;9.266;2023-05-09T04:24:40;101511.16;;;10.65;56.48
76201;BME280;64981;52.930;9.266;2023-05-09T04:27:06;101502.66;;;10.71;56.17
76201;BME280;64981;52.930;9.266;2023-05-09T04:29:32;101499.75;;;10.64;56.80
76201;BME280;64981;52.930;9.266;2023-05-09T04:31:58;101511.91;;;10.75;56.26
76201;BME280;64981;52.930;9.266;2023-05-09T04:34:24;101507.13;;;10.61;56.85
76201;BME280;64981;52.930;9.266;2023-05-09T04:36:50;101491.06;;;10.72;56.42
76201;BME280;64981;52.930;9.266;2023-05-09T04:39:16;101493.03;;;10.70;56.83
76201;BME280;64981;52.930;9.266;2023-05-09T04:41:42;101491.88;;;10.82;56.66
76201;BME280;64981;52.930;9.266;2023-05-09T04:44:09;101495.31;;;10.92;56.14
76201;BME280;64981;52.930;9.266;2023-05-09T04:46:34;101503.25;;;10.92;56.32
76201;BME280;64981;52.930;9.266;2023-05-09T04:49:00;101498.34;;;10.97;56.54
76201;BME280;64981;52.930;9.266;2023-05-09T04:51:26;101493.59;;;11.01;55.92
76201;BME280;64981;52.930;9.266;2023-05-09T04:53:51;101498.59;;;11.04;56.46
76201;BME280;64981;52.930;9.266;2023-05-09T04:56:17;101486.56;;;10.92;56.58
76201;BME280;64981;52.930;9.266;2023-05-09T04:58:42;101484.31;;;10.97;56.65
76201;BME280;64981;52.930;9.266;2023-05-09T05:01:08;101482.50;;;11.24;55.73
76201;BME280;64981;52.930;9.266;2023-05-09T05:03:33;101482.00;;;11.11;56.09
76201;BME280;64981;52.930;9.266;2023-05-09T05:05:59;101480.59;;;11.17;56.08
76201;BME280;64981;52.930;9.266;2023-05-09T05:08:25;101471.50;;;11.19;56.22
76201;BME280;64981;52.930;9.266;2023-05-09T05:10:50;101470.25;;;11.23;56.24
76201;BME280;64981;52.930;9.266;2023-05-09T05:13:16;101461.66;;;11.21;56.23
76201;BME280;64981;52.930;9.266;2023-05-09T05:15:42;101465.78;;;11.24;56.05
76201;BME280;64981;52.930;9.266;2023-05-09T05:18:07;101477.53;;;11.39;56.09
76201;BME280;64981;52.930;9.266;2023-05-09T05:20:33;101470.31;;;11.59;55.62
76201;BME280;64981;52.930;9.266;2023-05-09T05:22:59;101475.31;;;11.62;55.55
76201;BME280;64981;52.930;9.266;2023-05-09T05:25:25;101465.75;;;11.51;55.87
76201;BME280;64981;52.930;9.266;2023-05-09T05:27:51;101464.72;;;11.79;55.13
76201;BME280;64981;52.930;9.266;2023-05-09T05:30:17;101459.59;;;11.78;55.80
76201;BME280;64981;52.930;9.266;2023-05-09T05:32:43;101460.84;;;11.91;55.33
76201;BME280;64981;52.930;9.266;2023-05-09T05:35:09;101461.69;;;11.92;55.04
76201;BME280;64981;52.930;9.266;2023-05-09T05:37:38;101466.31;;;11.90;55.73
76201;BME280;64981;52.930;9.266;2023-05-09T05:40:05;101451.75;;;11.94;55.77
76201;BME280;64981;52.930;9.266;2023-05-09T05:42:32;101454.00;;;12.07;54.91
76201;BME280;64981;52.930;9.266;2023-05-09T05:44:59;101448.34;;;12.02;55.35
76201;BME280;64981;52.930;9.266;2023-05-09T05:47:38;101448.81;;;11.97;55.98
76201;BME280;64981;52.930;9.266;2023-05-09T05:50:05;101446.81;;;12.17;54.99
76201;BME280;64981;52.930;9.266;2023-05-09T05:52:32;101450.16;;;12.19;54.95
76201;BME280;64981;52.930;9.266;2023-05-09T05:54:58;101438.63;;;12.28;54.74
76201;BME280;64981;52.930;9.266;2023-05-09T05:57:23;101440.22;;;12.21;54.59
76201;BME280;64981;52.930;9.266;2023-05-09T05:59:49;101430.25;;;12.40;54.58
76201;BME280;64981;52.930;9.266;2023-05-09T06:02:16;101430.59;;;12.45;54.97
76201;BME280;64981;52.930;9.266;2023-05-09T06:04:42;101438.09;;;12.50;54.71
76201;BME280;64981;52.930;9.266;2023-05-09T06:07:09;101438.19;;;12.74;54.27
76201;BME280;64981;52.930;9.266;2023-05-09T06:09:35;101428.91;;;12.78;54.16
76201;BME280;64981;52.930;9.266;2023-05-09T06:12:00;101423.91;;;13.01;53.74
76201;BME280;64981;52.930;9.266;2023-05-09T06:14:26;101432.19;;;12.98;53.77
76201;BME280;64981;52.930;9.266;2023-05-09T06:16:52;101433.88;;;13.07;53.93
76201;BME280;64981;52.930;9.266;2023-05-09T06:19:18;101425.28;;;13.21;53.84
76201;BME280;64981;52.930;9.266;2023-05-09T06:21:44;101429.00;;;13.52;53.01
76201;BME280;64981;52.930;9.266;2023-05-09T06:24:10;101430.16;;;13.50;53.34
76201;BME280;64981;52.930;9.266;2023-05-09T06:26:36;101398.13;;;13.27;53.69
76201;BME280;64981;52.930;9.266;2023-05-09T06:29:03;101406.44;;;13.57;53.15
76201;BME280;64981;52.930;9.266;2023-05-09T06:31:30;101405.44;;;13.58;53.35
76201;BME280;64981;52.930;9.266;2023-05-09T06:33:57;101398.31;;;13.90;52.45
76201;BME280;64981;52.930;9.266;2023-05-09T06:36:22;101418.50;;;14.40;50.74
76201;BME280;64981;52.930;9.266;2023-05-09T06:38:48;101405.78;;;14.66;50.25
76201;BME280;64981;52.930;9.266;2023-05-09T06:41:13;101407.13;;;15.32;49.40
76201;BME280;64981;52.930;9.266;2023-05-09T06:43:39;101397.25;;;15.63;48.26
76201;BME280;64981;52.930;9.266;2023-05-09T06:46:05;101405.97;;;15.72;48.07
76201;BME280;64981;52.930;9.266;2023-05-09T06:48:30;101409.66;;;16.08;47.57
76201;BME280;64981;52.930;9.266;2023-05-09T06:50:56;101397.63;;;16.12;47.27
76201;BME280;64981;52.930;9.266;2023-05-09T06:53:21;101388.75;;;16.34;47.32
76201;BME280;64981;52.930;9.266;2023-05-09T06:55:47;101388.75;;;16.34;47.31
76201;BME280;64981;52.930;9.266;2023-05-09T06:58:13;101377.59;;;16.60;46.80
76201;BME280;64981;52.930;9.266;2023-05-09T07:00:39;101370.25;;;16.47;47.22
76201;BME280;64981;52.930;9.266;2023-05-09T07:03:05;101366.09;;;16.59;46.90
76201;BME280;64981;52.930;9.266;2023-05-09T07:05:32;101364.38;;;16.37;47.60
76201;BME280;64981;52.930;9.266;2023-05-09T07:07:58;101373.66;;;16.12;48.44
76201;BME280;64981;52.930;9.266;2023-05-09T07:10:23;101367.94;;;16.00;48.28
76201;BME280;64981;52.930;9.266;2023-05-09T07:12:49;101363.06;;;16.04;48.46
76201;BME280;64981;52.930;9.266;2023-05-09T07:15:15;101363.16;;;15.58;49.66
76201;BME280;64981;52.930;9.266;2023-05-09T07:17:41;101368.13;;;15.61;49.55
76201;BME280;64981;52.930;9.266;2023-05-09T07:20:07;101354.41;;;15.50;49.34
76201;BME280;64981;52.930;9.266;2023-05-09T07:22:33;101361.28;;;15.44;49.77
76201;BME280;64981;52.930;9.266;2023-05-09T07:24:59;101348.22;;;15.35;50.09
76201;BME280;64981;52.930;9.266;2023-05-09T07:27:24;101348.31;;;15.41;50.09
76201;BME280;64981;52.930;9.266;2023-05-09T07:29:50;101341.69;;;15.37;50.68
76201;BME280;64981;52.930;9.266;2023-05-09T07:32:18;101341.25;;;15.48;50.88
76201;BME280;64981;52.930;9.266;2023-05-09T07:34:44;101339.75;;;15.69;50.32
76201;BME280;64981;52.930;9.266;2023-05-09T07:37:10;101338.75;;;15.70;50.77
76201;BME280;64981;52.930;9.266;2023-05-09T07:39:35;101329.84;;;15.77;51.10
76201;BME280;64981;52.930;9.266;2023-05-09T07:42:01;101322.22;;;15.89;49.75
76201;BME280;64981;52.930;9.266;2023-05-09T07:44:26;101328.75;;;15.86;50.54
76201;BME280;64981;52.930;9.266;2023-05-09T07:46:52;101324.16;;;15.80;50.47
76201;BME280;64981;52.930;9.266;2023-05-09T07:49:20;101307.44;;;15.72;51.00
76201;BME280;64981;52.930;9.266;2023-05-09T07:51:46;101315.41;;;16.09;50.30
76201;BME280;64981;52.930;9.266;2023-05-09T07:54:12;101301.69;;;15.97;51.37
76201;BME280;64981;52.930;9.266;2023-05-09T07:56:37;101311.13;;;16.00;52.26
76201;BME280;64981;52.930;9.266;2023-05-09T07:59:03;101314.81;;;16.43;50.87
76201;BME280;64981;52.930;9.266;2023-05-09T08:01:29;101304.22;;;16.49;50.46
76201;BME280;64981;52.930;9.266;2023-05-09T08:03:54;101295.94;;;16.59;50.38
76201;BME280;64981;52.930;9.266;2023-05-09T08:06:20;101300.75;;;16.70;50.18
76201;BME280;64981;52.930;9.266;2023-05-09T08:08:46;101294.44;;;16.92;50.03
76201;BME280;64981;52.930;9.266;2023-05-09T08:11:11;101291.75;;;16.92;50.19
76201;BME280;64981;52.930;9.266;2023-05-09T08:13:37;101286.03;;;17.10;50.31
76201;BME280;64981;52.930;9.266;2023-05-09T08:16:03;101289.56;;;17.17;49.61
76201;BME280;64981;52.930;9.266;2023-05-09T08:18:28;101282.91;;;17.06;50.06
76201;BME280;64981;52.930;9.266;2023-05-09T08:20:54;101283.50;;;17.23;49.83
76201;BME280;64981;52.930;9.266;2023-05-09T08:23:19;101281.22;;;17.20;49.22
76201;BME280;64981;52.930;9.266;2023-05-09T08:25:45;101270.16;;;17.23;49.55
76201;BME280;64981;52.930;9.266;2023-05-09T08:28:11;101266.88;;;17.28;49.95
76201;BME280;64981;52.930;9.266;2023-05-09T08:30:36;101259.88;;;17.48;49.05
76201;BME280;64981;52.930;9.266;2023-05-09T08:33:02;101267.03;;;17.47;50.21
76201;BME280;64981;52.930;9.266;2023-05-09T08:35:28;101260.88;;;17.47;49.18
76201;BME280;64981;52.930;9.266;2023-05-09T08:37:53;101251.16;;;17.67;49.29
76201;BME280;64981;52.930;9.266;2023-05-09T08:40:19;101244.69;;;17.89;49.26
76201;BME280;64981;52.930;9.266;2023-05-09T08:42:47;101245.97;;;17.93;49.58
76201;BME280;64981;52.930;9.266;2023-05-09T08:45:13;101249.34;;;18.08;49.61
76201;BME280;64981;52.930;9.266;2023-05-09T08:47:40;101240.41;;;18.29;48.75
76201;BME280;64981;52.930;9.266;2023-05-09T08:50:07;101242.47;;;18.40;47.74
76201;BME280;64981;52.930;9.266;2023-05-09T08:52:34;101246.03;;;18.54;47.80
76201;BME280;64981;52.930;9.266;2023-05-09T08:55:01;101239.31;;;18.23;47.96
76201;BME280;64981;52.930;9.266;2023-05-09T08:57:32;101243.13;;;18.55;48.00
76201;BME280;64981;52.930;9.266;2023-05-09T08:59:59;101242.56;;;18.73;47.61
76201;BME280;64981;52.930;9.266;2023-05-09T09:02:25;101241.97;;;18.77;47.72
76201;BME280;64981;52.930;9.266;2023-05-09T09:04:53;101229.19;;;18.73;47.81
76201;BME280;64981;52.930;9.266;2023-05-09T09:07:24;101229.06;;;19.07;47.03
76201;BME280;64981;52.930;9.266;2023-05-09T09:09:51;101225.72;;;19.05;47.14
76201;BME280;64981;52.930;9.266;2023-05-09T09:12:17;101216.47;;;18.95;47.72
76201;BME280;64981;52.930;9.266;2023-05-09T09:14:48;101230.28;;;19.18;47.00
76201;BME280;64981;52.930;9.266;2023-05-09T09:17:19;101211.75;;;19.16;46.95
76201;BME280;64981;52.930;9.266;2023-05-09T09:19:48;101211.53;;;19.24;47.54
76201;BME280;64981;52.930;9.266;2023-05-09T09:22:17;101216.28;;;19.29;47.04
76201;BME280;64981;52.930;9.266;2023-05-09T09:24:43;101204.50;;;19.37;46.47
76201;BME280;64981;52.930;9.266;2023-05-09T09:27:09;101201.81;;;19.43;46.92
76201;BME280;64981;52.930;9.266;2023-05-09T09:29:34;101212.34;;;19.25;47.38
76201;BME280;64981;52.930;9.266;2023-05-09T09:32:02;101201.22;;;19.61;46.77
76201;BME280;64981;52.930;9.266;2023-05-09T09:34:28;101199.94;;;19.70;46.91
76201;BME280;64981;52.930;9.266;2023-05-09T09:36:54;101193.53;;;19.71;45.88
76201;BME280;64981;52.930;9.266;2023-05-09T09:39:19;101197.66;;;19.80;45.66
76201;BME280;64981;52.930;9.266;2023-05-09T09:41:47;101202.53;;;19.90;46.18
76201;BME280;64981;52.930;9.266;2023-05-09T09:44:14;101191.25;;;19.81;46.66
76201;BME280;64981;52.930;9.266;2023-05-09T09:46:45;101175.06;;;20.07;46.60
76201;BME280;64981;52.930;9.266;2023-05-09T09:49:14;101177.09;;;20.05;44.87
76201;BME280;64981;52.930;9.266;2023-05-09T09:51:40;101172.09;;;20.15;44.72
76201;BME280;64981;52.930;9.266;2023-05-09T09:54:07;101163.38;;;20.33;44.12
76201;BME280;64981;52.930;9.266;2023-05-09T09:56:42;101151.38;;;20.42;43.17
76201;BME280;64981;52.930;9.266;2023-05-09T09:59:11;101151.16;;;20.68;42.35
76201;BME280;64981;52.930;9.266;2023-05-09T10:01:56;101145.56;;;20.45;42.34
76201;BME280;64981;52.930;9.266;2023-05-09T10:04:23;101141.72;;;20.59;41.70
76201;BME280;64981;52.930;9.266;2023-05-09T10:06:53;101141.69;;;20.66;41.15
76201;BME280;64981;52.930;9.266;2023-05-09T10:09:21;101133.44;;;20.67;41.62
76201;BME280;64981;52.930;9.266;2023-05-09T10:11:49;101150.06;;;20.76;41.18
76201;BME280;64981;52.930;9.266;2023-05-09T10:14:18;101118.19;;;21.29;39.04
76201;BME280;64981;52.930;9.266;2023-05-09T10:16:47;101123.44;;;21.24;38.88
76201;BME280;64981;52.930;9.266;2023-05-09T10:19:17;101119.78;;;21.55;37.57
76201;BME280;64981;52.930;9.266;2023-05-09T10:21:50;101124.91;;;21.92;37.53
76201;BME280;64981;52.930;9.266;2023-05-09T10:24:21;101109.47;;;22.00;36.72
76201;BME280;64981;52.930;9.266;2023-05-09T10:26:52;101110.59;;;22.10;36.42
76201;BME280;64981;52.930;9.266;2023-05-09T10:29:24;101103.34;;;22.11;36.46
76201;BME280;64981;52.930;9.266;2023-05-09T10:31:58;101089.91;;;22.22;36.03
76201;BME280;64981;52.930;9.266;2023-05-09T10:34:27;101076.56;;;22.16;36.15
76201;BME280;64981;52.930;9.266;2023-05-09T10:36:56;101081.00;;;22.10;36.45
76201;BME280;64981;52.930;9.266;2023-05-09T10:39:25;101082.75;;;22.05;35.13
76201;BME280;64981;52.930;9.266;2023-05-09T10:41:52;101082.03;;;22.09;35.19
76201;BME280;64981;52.930;9.266;2023-05-09T10:44:22;101076.06;;;22.07;34.74
76201;BME280;64981;52.930;9.266;2023-05-09T10:46:48;101076.25;;;21.94;35.46
76201;BME280;64981;52.930;9.266;2023-05-09T10:49:14;101075.06;;;21.90;36.28
76201;BME280;64981;52.930;9.266;2023-05-09T10:51:40;101064.41;;;22.13;35.27
76201;BME280;64981;52.930;9.266;2023-05-09T10:54:14;101059.13;;;21.88;36.03
76201;BME280;64981;52.930;9.266;2023-05-09T10:56:49;101055.72;;;21.81;36.31
76201;BME280;64981;52.930;9.266;2023-05-09T10:59:33;101055.34;;;21.96;36.03
76201;BME280;64981;52.930;9.266;2023-05-09T11:02:01;101040.50;;;21.75;35.21
76201;BME280;64981;52.930;9.266;2023-05-09T11:04:29;101042.19;;;21.58;36.10
76201;BME280;64981;52.930;9.266;2023-05-09T11:06:55;101033.31;;;21.58;35.46
76201;BME280;64981;52.930;9.266;2023-05-09T11:09:29;101035.72;;;21.48;35.74
76201;BME280;64981;52.930;9.266;2023-05-09T11:12:14;101031.28;;;21.53;36.36
76201;BME280;64981;52.930;9.266;2023-05-09T11:14:43;101037.50;;;21.83;36.29
76201;BME280;64981;52.930;9.266;2023-05-09T11:19:58;101029.13;;;21.91;36.10
76201;BME280;64981;52.930;9.266;2023-05-09T11:22:28;101001.84;;;21.88;35.95
76201;BME280;64981;52.930;9.266;2023-05-09T11:25:03;101020.28;;;21.84;35.96
76201;BME280;64981;52.930;9.266;2023-05-09T11:27:38;101018.03;;;22.00;36.17
76201;BME280;64981;52.930;9.266;2023-05-09T11:30:07;101012.25;;;22.26;35.71
76201;BME280;64981;52.930;9.266;2023-05-09T11:32:44;101010.63;;;22.36;36.18
76201;BME280;64981;52.930;9.266;2023-05-09T11:35:14;100999.50;;;22.44;36.41
76201;BME280;64981;52.930;9.266;2023-05-09T11:37:46;101006.19;;;22.65;36.88
76201;BME280;64981;52.930;9.266;2023-05-09T11:40:14;100995.75;;;22.45;37.06
76201;BME280;64981;52.930;9.266;2023-05-09T11:42:48;101000.22;;;22.63;37.18
76201;BME280;64981;52.930;9.266;2023-05-09T11:45:15;100995.16;;;22.43;38.25
76201;BME280;64981;52.930;9.266;2023-05-09T11:47:42;100987.94;;;22.56;37.80
76201;BME280;64981;52.930;9.266;2023-05-09T11:50:10;100999.97;;;22.88;36.49
76201;BME280;64981;52.930;9.266;2023-05-09T11:52:37;100998.25;;;22.70;36.93
76201;BME280;64981;52.930;9.266;2023-05-09T11:55:10;100990.38;;;22.69;37.46
76201;BME280;64981;52.930;9.266;2023-05-09T11:57:41;100987.69;;;22.80;37.40
76201;BME280;64981;52.930;9.266;2023-05-09T12:00:08;100989.66;;;22.85;37.71
76201;BME280;64981;52.930;9.266;2023-05-09T12:02:36;100978.63;;;22.98;37.62
76201;BME280;64981;52.930;9.266;2023-05-09T12:05:11;100975.63;;;22.83;38.95
76201;BME280;64981;52.930;9.266;2023-05-09T12:07:38;100969.63;;;22.81;38.05
76201;BME280;64981;52.930;9.266;2023-05-09T12:10:07;100967.53;;;22.83;37.88
76201;BME280;64981;52.930;9.266;2023-05-09T12:12:34;100968.16;;;22.62;38.07
76201;BME280;64981;52.930;9.266;2023-05-09T12:15:02;100952.19;;;22.60;37.44
76201;BME280;64981;52.930;9.266;2023-05-09T12:17:29;100950.47;;;22.77;37.46
76201;BME280;64981;52.930;9.266;2023-05-09T12:19:57;100953.88;;;22.61;37.11
76201;BME280;64981;52.930;9.266;2023-05-09T12:22:24;100953.50;;;22.69;38.12
76201;BME280;64981;52.930;9.266;2023-05-09T12:24:49;100951.03;;;22.79;38.75
76201;BME280;64981;52.930;9.266;2023-05-09T12:27:15;100940.22;;;22.91;37.85
76201;BME280;64981;52.930;9.266;2023-05-09T12:29:43;100943.81;;;23.08;37.74
76201;BME280;64981;52.930;9.266;2023-05-09T12:32:14;100940.91;;;22.98;37.67
76201;BME280;64981;52.930;9.266;2023-05-09T12:34:42;100945.56;;;22.63;38.09
76201;BME280;64981;52.930;9.266;2023-05-09T12:37:15;100931.13;;;22.80;38.45
76201;BME280;64981;52.930;9.266;2023-05-09T12:39:43;100949.81;;;22.98;38.55
76201;BME280;64981;52.930;9.266;2023-05-09T12:42:12;100939.34;;;22.62;38.92
76201;BME280;64981;52.930;9.266;2023-05-09T12:44:38;100926.47;;;22.29;39.76
76201;BME280;64981;52.930;9.266;2023-05-09T12:47:04;100927.63;;;22.80;39.78
76201;BME280;64981;52.930;9.266;2023-05-09T12:49:30;100926.00;;;22.44;40.01
76201;BME280;64981;52.930;9.266;2023-05-09T12:51:58;100930.22;;;22.52;40.22
76201;BME280;64981;52.930;9.266;2023-05-09T12:54:26;100918.28;;;22.47;39.70
76201;BME280;64981;52.930;9.266;2023-05-09T12:56:55;100914.53;;;22.48;39.70